sensor_id;sensor_type;location;lat;lon;timestamp;pressure;altitude;pressure_sealevel;temperature;humidity
23996;BME280;12207;50.076;8.848;2023-12-28T00:01:41;99954.97;;;3.02;100.00
23996;BME280;12207;50.076;8.848;2023-12-28T00:04:07;99947.03;;;3.02;100.00
23996;BME280;12207;50.076;8.848;2023-12-28T00:06:33;99937.44;;;3.01;100.00
23996;BME280;12207;50.076;8.848;2023-12-28T00:08:59;99944.56;;;3.01;100.00
23996;BME280;12207;50.076;8.848;2023-12-28T00:11:26;99948.38;;;2.98;100.00
23996;BME280;12207;50.076;8.848;2023-12-28T00:13:52;99951.66;;;3.00;100.00
23996;BME280;12207;50.076;8.848;2023-12-28T00:16:18;99958.28;;;3.04;100.00
23996;BME280;12207;50.076;8.848;2023-12-28T00:18:45;99947.69;;;3.04;100.00
23996;BME280;12207;50.076;8.848;2023-12-28T00:21:11;99956.31;;;3.06;100.00
23996;BME280;12207;50.076;8.848;2023-12-28T00:23:37;99951.97;;;3.14;100.00
23996;BME280;12207;50.076;8.848;2023-12-28T00:26:03;99947.66;;;3.21;100.00
23996;BME280;12207;50.076;8.848;2023-12-28T00:28:29;99939.19;;;3.25;100.00
23996;BME280;12207;50.076;8.848;2023-12-28T00:30:55;99938.16;;;3.34;100.00
23996;BME280;12207;50.076;8.848;2023-12-28T00:33:21;99934.31;;;3.45;100.00
23996;BME280;12207;50.076;8.848;2023-12-28T00:35:47;99933.25;;;3.62;100.00
23996;BME280;12207;50.076;8.848;2023-12-28T00:38:14;99930.38;;;3.72;100.00
23996;BME280;12207;50.076;8.848;2023-12-28T00:40:40;99942.56;;;3.81;100.00
23996;BME280;12207;50.076;8.848;2023-12-28T00:43:06;99947.50;;;3.92;100.00
23996;BME280;12207;50.076;8.848;2023-12-28T00:45:33;99943.31;;;3.98;100.00
23996;BME280;12207;50.076;8.848;2023-12-28T00:47:59;99953.84;;;4.06;99.95
23996;BME280;12207;50.076;8.848;2023-12-28T00:50:25;99953.00;;;4.14;99.54
23996;BME280;12207;50.076;8.848;2023-12-28T00:52:53;99944.69;;;4.17;98.95
23996;BME280;12207;50.076;8.848;2023-12-28T00:55:19;99932.91;;;4.19;97.05
23996;BME280;12207;50.076;8.848;2023-12-28T00:57:45;99933.81;;;4.26;97.85
23996;BME280;12207;50.076;8.848;2023-12-28T01:00:14;99930.78;;;4.37;97.37
23996;BME280;12207;50.076;8.848;2023-12-28T01:02:40;99936.19;;;4.44;96.65
23996;BME280;12207;50.076;8.848;2023-12-28T01:05:06;99941.16;;;4.47;97.30
23996;BME280;12207;50.076;8.848;2023-12-28T01:07:33;99949.28;;;4.45;97.00
23996;BME280;12207;50.076;8.848;2023-12-28T01:09:59;99947.91;;;4.50;97.33
23996;BME280;12207;50.076;8.848;2023-12-28T01:12:25;99946.56;;;4.54;96.35
23996;BME280;12207;50.076;8.848;2023-12-28T01:14:54;99943.25;;;4.52;96.70
23996;BME280;12207;50.076;8.848;2023-12-28T01:17:20;99937.59;;;4.55;96.56
23996;BME280;12207;50.076;8.848;2023-12-28T01:19:46;99930.56;;;4.62;94.98
23996;BME280;12207;50.076;8.848;2023-12-28T01:22:13;99934.41;;;4.74;94.33
23996;BME280;12207;50.076;8.848;2023-12-28T01:24:39;99935.41;;;4.96;92.26
23996;BME280;12207;50.076;8.848;2023-12-28T01:27:05;99933.22;;;5.14;93.05
23996;BME280;12207;50.076;8.848;2023-12-28T01:29:31;99953.06;;;5.33;93.02
23996;BME280;12207;50.076;8.848;2023-12-28T01:31:58;99972.38;;;5.71;89.77
23996;BME280;12207;50.076;8.848;2023-12-28T01:34:24;99968.41;;;5.96;87.46
23996;BME280;12207;50.076;8.848;2023-12-28T01:36:50;99976.66;;;6.37;83.36
23996;BME280;12207;50.076;8.848;2023-12-28T01:39:16;99985.47;;;6.87;81.14
23996;BME280;12207;50.076;8.848;2023-12-28T01:41:44;99976.19;;;7.04;78.40
23996;BME280;12207;50.076;8.848;2023-12-28T01:44:12;99981.22;;;7.21;78.10
23996;BME280;12207;50.076;8.848;2023-12-28T01:46:38;99986.78;;;7.60;74.44
23996;BME280;12207;50.076;8.848;2023-12-28T01:49:05;99992.63;;;7.83;74.46
23996;BME280;12207;50.076;8.848;2023-12-28T01:51:31;99996.06;;;8.18;71.20
23996;BME280;12207;50.076;8.848;2023-12-28T01:53:58;99995.78;;;8.68;68.38
23996;BME280;12207;50.076;8.848;2023-12-28T01:56:25;100000.72;;;8.84;68.28
23996;BME280;12207;50.076;8.848;2023-12-28T01:58:51;99985.28;;;8.99;66.79
23996;BME280;12207;50.076;8.848;2023-12-28T02:01:19;99993.53;;;9.17;65.94
23996;BME280;12207;50.076;8.848;2023-12-28T02:03:46;100011.81;;;9.20;66.16
23996;BME280;12207;50.076;8.848;2023-12-28T02:06:13;100016.31;;;9.33;65.52
23996;BME280;12207;50.076;8.848;2023-12-28T02:08:41;100019.56;;;9.55;63.84
23996;BME280;12207;50.076;8.848;2023-12-28T02:11:08;100015.88;;;9.56;64.92
23996;BME280;12207;50.076;8.848;2023-12-28T02:13:34;100021.84;;;9.58;63.53
23996;BME280;12207;50.076;8.848;2023-12-28T02:16:29;100012.56;;;9.61;64.52
23996;BME280;12207;50.076;8.848;2023-12-28T02:19:03;100019.09;;;9.71;63.40
23996;BME280;12207;50.076;8.848;2023-12-28T02:21:36;100017.66;;;9.75;63.44
23996;BME280;12207;50.076;8.848;2023-12-28T02:24:02;100023.00;;;9.75;63.55
23996;BME280;12207;50.076;8.848;2023-12-28T02:26:28;100024.44;;;9.78;63.12
23996;BME280;12207;50.076;8.848;2023-12-28T02:28:54;100024.47;;;9.71;63.38
23996;BME280;12207;50.076;8.848;2023-12-28T02:31:38;100030.69;;;9.58;65.20
23996;BME280;12207;50.076;8.848;2023-12-28T02:34:09;100023.69;;;9.64;63.68
23996;BME280;12207;50.076;8.848;2023-12-28T02:36:37;100034.16;;;9.66;63.63
23996;BME280;12207;50.076;8.848;2023-12-28T02:39:08;100025.53;;;9.64;64.19
23996;BME280;12207;50.076;8.848;2023-12-28T02:41:37;100027.38;;;9.63;64.09
23996;BME280;12207;50.076;8.848;2023-12-28T02:44:03;100023.69;;;9.64;64.67
23996;BME280;12207;50.076;8.848;2023-12-28T02:46:30;100019.78;;;9.60;64.42
23996;BME280;12207;50.076;8.848;2023-12-28T02:48:56;100023.88;;;9.63;64.76
23996;BME280;12207;50.076;8.848;2023-12-28T02:51:23;100024.09;;;9.68;64.22
23996;BME280;12207;50.076;8.848;2023-12-28T02:53:49;100035.16;;;9.71;64.44
23996;BME280;12207;50.076;8.848;2023-12-28T02:56:15;100040.34;;;9.66;65.20
23996;BME280;12207;50.076;8.848;2023-12-28T02:58:41;100045.25;;;9.69;64.19
23996;BME280;12207;50.076;8.848;2023-12-28T03:01:07;100049.00;;;9.68;64.40
23996;BME280;12207;50.076;8.848;2023-12-28T03:03:33;100035.00;;;9.66;64.97
23996;BME280;12207;50.076;8.848;2023-12-28T03:05:59;100044.63;;;9.74;64.42
23996;BME280;12207;50.076;8.848;2023-12-28T03:08:25;100039.06;;;9.69;65.55
23996;BME280;12207;50.076;8.848;2023-12-28T03:10:51;100038.03;;;9.70;65.42
23996;BME280;12207;50.076;8.848;2023-12-28T03:13:18;100039.72;;;9.64;66.32
23996;BME280;12207;50.076;8.848;2023-12-28T03:15:44;100048.16;;;9.61;66.93
23996;BME280;12207;50.076;8.848;2023-12-28T03:18:11;100043.84;;;9.60;67.78
23996;BME280;12207;50.076;8.848;2023-12-28T03:20:37;100045.09;;;9.57;67.44
23996;BME280;12207;50.076;8.848;2023-12-28T03:23:03;100043.03;;;9.60;67.81
23996;BME280;12207;50.076;8.848;2023-12-28T03:25:29;100025.53;;;9.64;68.10
23996;BME280;12207;50.076;8.848;2023-12-28T03:27:55;100024.50;;;9.58;69.12
23996;BME280;12207;50.076;8.848;2023-12-28T03:30:21;100031.50;;;9.59;69.58
23996;BME280;12207;50.076;8.848;2023-12-28T03:32:47;100043.03;;;9.53;71.45
23996;BME280;12207;50.076;8.848;2023-12-28T03:35:13;100050.84;;;9.48;72.04
23996;BME280;12207;50.076;8.848;2023-12-28T03:37:40;100043.84;;;9.47;73.10
23996;BME280;12207;50.076;8.848;2023-12-28T03:40:06;100037.88;;;9.45;74.46
23996;BME280;12207;50.076;8.848;2023-12-28T03:42:32;100030.31;;;9.42;74.53
23996;BME280;12207;50.076;8.848;2023-12-28T03:45:01;100039.34;;;9.41;74.76
23996;BME280;12207;50.076;8.848;2023-12-28T03:47:27;100024.97;;;9.42;74.99
23996;BME280;12207;50.076;8.848;2023-12-28T03:49:54;100040.38;;;9.40;75.72
23996;BME280;12207;50.076;8.848;2023-12-28T03:52:23;100046.16;;;9.37;76.46
23996;BME280;12207;50.076;8.848;2023-12-28T03:54:51;100049.03;;;9.42;75.97
23996;BME280;12207;50.076;8.848;2023-12-28T03:57:17;100056.59;;;9.45;76.71
23996;BME280;12207;50.076;8.848;2023-12-28T03:59:49;100067.53;;;9.43;76.73
23996;BME280;12207;50.076;8.848;2023-12-28T04:02:15;100061.78;;;9.40;77.25
23996;BME280;12207;50.076;8.848;2023-12-28T04:04:41;100081.53;;;9.39;77.62
23996;BME280;12207;50.076;8.848;2023-12-28T04:07:07;100071.03;;;9.44;77.63
23996;BME280;12207;50.076;8.848;2023-12-28T04:09:34;100056.84;;;9.37;78.58
23996;BME280;12207;50.076;8.848;2023-12-28T04:12:00;100060.53;;;9.36;78.57
23996;BME280;12207;50.076;8.848;2023-12-28T04:14:26;100076.38;;;9.31;78.98
23996;BME280;12207;50.076;8.848;2023-12-28T04:16:52;100061.97;;;9.32;78.77
23996;BME280;12207;50.076;8.848;2023-12-28T04:19:18;100064.03;;;9.36;79.24
23996;BME280;12207;50.076;8.848;2023-12-28T04:21:44;100049.44;;;9.39;79.09
23996;BME280;12207;50.076;8.848;2023-12-28T04:24:11;100055.81;;;9.38;79.38
23996;BME280;12207;50.076;8.848;2023-12-28T04:26:37;100045.94;;;9.38;79.68
23996;BME280;12207;50.076;8.848;2023-12-28T04:29:03;100062.81;;;9.39;79.70
23996;BME280;12207;50.076;8.848;2023-12-28T04:31:29;100050.47;;;9.38;80.73
23996;BME280;12207;50.076;8.848;2023-12-28T04:33:55;100032.34;;;9.33;81.09
23996;BME280;12207;50.076;8.848;2023-12-28T04:36:21;100030.91;;;9.31;81.56
23996;BME280;12207;50.076;8.848;2023-12-28T04:38:47;100037.72;;;9.33;82.50
23996;BME280;12207;50.076;8.848;2023-12-28T04:41:13;100042.66;;;9.30;82.72
23996;BME280;12207;50.076;8.848;2023-12-28T04:43:39;100036.06;;;9.32;83.18
23996;BME280;12207;50.076;8.848;2023-12-28T04:46:06;100025.78;;;9.29;83.04
23996;BME280;12207;50.076;8.848;2023-12-28T04:48:32;100026.81;;;9.35;83.58
23996;BME280;12207;50.076;8.848;2023-12-28T04:50:58;100012.63;;;9.34;84.62
23996;BME280;12207;50.076;8.848;2023-12-28T04:53:27;100005.81;;;9.32;85.61
23996;BME280;12207;50.076;8.848;2023-12-28T04:55:55;100014.47;;;9.27;86.24
23996;BME280;12207;50.076;8.848;2023-12-28T04:58:21;100047.38;;;9.28;86.92
23996;BME280;12207;50.076;8.848;2023-12-28T05:00:47;100056.41;;;9.27;87.40
23996;BME280;12207;50.076;8.848;2023-12-28T05:03:14;100056.41;;;9.27;87.50
23996;BME280;12207;50.076;8.848;2023-12-28T05:05:40;100068.56;;;9.29;87.34
23996;BME280;12207;50.076;8.848;2023-12-28T05:08:06;100070.19;;;9.23;88.18
23996;BME280;12207;50.076;8.848;2023-12-28T05:10:32;100086.22;;;9.23;88.12
23996;BME280;12207;50.076;8.848;2023-12-28T05:12:58;100081.09;;;9.29;88.28
23996;BME280;12207;50.076;8.848;2023-12-28T05:15:25;100097.34;;;9.27;88.34
23996;BME280;12207;50.076;8.848;2023-12-28T05:17:51;100098.16;;;9.28;88.49
23996;BME280;12207;50.076;8.848;2023-12-28T05:20:17;100109.69;;;9.35;88.36
23996;BME280;12207;50.076;8.848;2023-12-28T05:22:46;100107.84;;;9.29;89.01
23996;BME280;12207;50.076;8.848;2023-12-28T05:25:12;100115.25;;;9.27;88.99
23996;BME280;12207;50.076;8.848;2023-12-28T05:27:39;100111.75;;;9.26;89.73
23996;BME280;12207;50.076;8.848;2023-12-28T05:30:06;100116.66;;;9.22;89.96
23996;BME280;12207;50.076;8.848;2023-12-28T05:32:32;100123.66;;;9.23;90.22
23996;BME280;12207;50.076;8.848;2023-12-28T05:34:58;100127.78;;;9.33;89.97
23996;BME280;12207;50.076;8.848;2023-12-28T05:37:27;100119.56;;;9.34;90.23
23996;BME280;12207;50.076;8.848;2023-12-28T05:39:53;100122.88;;;9.36;89.87
23996;BME280;12207;50.076;8.848;2023-12-28T05:42:19;100124.09;;;9.34;90.19
23996;BME280;12207;50.076;8.848;2023-12-28T05:44:45;100115.44;;;9.32;91.02
23996;BME280;12207;50.076;8.848;2023-12-28T05:47:12;100122.66;;;9.38;90.93
23996;BME280;12207;50.076;8.848;2023-12-28T05:49:38;100120.00;;;9.38;91.00
23996;BME280;12207;50.076;8.848;2023-12-28T05:52:04;100121.63;;;9.39;91.68
23996;BME280;12207;50.076;8.848;2023-12-28T05:54:30;100118.34;;;9.37;91.79
23996;BME280;12207;50.076;8.848;2023-12-28T05:56:57;100118.75;;;9.34;92.10
23996;BME280;12207;50.076;8.848;2023-12-28T05:59:25;100128.41;;;9.35;92.04
23996;BME280;12207;50.076;8.848;2023-12-28T06:01:52;100120.81;;;9.32;92.43
23996;BME280;12207;50.076;8.848;2023-12-28T06:04:18;100122.44;;;9.33;92.59
23996;BME280;12207;50.076;8.848;2023-12-28T06:06:44;100109.28;;;9.31;92.74
23996;BME280;12207;50.076;8.848;2023-12-28T06:09:10;100106.19;;;9.28;92.96
23996;BME280;12207;50.076;8.848;2023-12-28T06:11:37;100107.84;;;9.29;93.29
23996;BME280;12207;50.076;8.848;2023-12-28T06:14:03;100101.88;;;9.33;92.90
23996;BME280;12207;50.076;8.848;2023-12-28T06:16:29;100099.22;;;9.33;92.68
23996;BME280;12207;50.076;8.848;2023-12-28T06:18:58;100099.81;;;9.35;92.81
23996;BME280;12207;50.076;8.848;2023-12-28T06:21:25;100090.97;;;9.28;93.51
23996;BME280;12207;50.076;8.848;2023-12-28T06:23:51;100080.91;;;9.37;92.71
23996;BME280;12207;50.076;8.848;2023-12-28T06:26:17;100080.91;;;9.37;93.07
23996;BME280;12207;50.076;8.848;2023-12-28T06:28:43;100084.59;;;9.36;92.76
23996;BME280;12207;50.076;8.848;2023-12-28T06:31:09;100077.59;;;9.35;93.14
23996;BME280;12207;50.076;8.848;2023-12-28T06:33:35;100086.66;;;9.27;93.71
23996;BME280;12207;50.076;8.848;2023-12-28T06:36:06;100085.00;;;9.33;93.39
23996;BME280;12207;50.076;8.848;2023-12-28T06:38:32;100084.19;;;9.26;93.60
23996;BME280;12207;50.076;8.848;2023-12-28T06:40:59;100079.25;;;9.22;94.13
23996;BME280;12207;50.076;8.848;2023-12-28T06:43:25;100082.56;;;9.18;94.32
23996;BME280;12207;50.076;8.848;2023-12-28T06:45:51;100085.84;;;9.13;94.45
23996;BME280;12207;50.076;8.848;2023-12-28T06:48:18;100092.44;;;9.17;94.61
23996;BME280;12207;50.076;8.848;2023-12-28T06:50:44;100090.38;;;9.19;94.86
23996;BME280;12207;50.076;8.848;2023-12-28T06:53:10;100094.91;;;9.19;94.88
23996;BME280;12207;50.076;8.848;2023-12-28T06:55:36;100094.88;;;9.26;94.95
23996;BME280;12207;50.076;8.848;2023-12-28T06:58:03;100097.38;;;9.20;95.34
23996;BME280;12207;50.076;8.848;2023-12-28T07:00:29;100097.38;;;9.20;95.29
23996;BME280;12207;50.076;8.848;2023-12-28T07:02:55;100088.72;;;9.25;94.91
23996;BME280;12207;50.076;8.848;2023-12-28T07:05:21;100097.75;;;9.24;95.20
23996;BME280;12207;50.076;8.848;2023-12-28T07:07:47;100105.16;;;9.29;94.69
23996;BME280;12207;50.076;8.848;2023-12-28T07:10:13;100101.88;;;9.33;94.66
23996;BME280;12207;50.076;8.848;2023-12-28T07:12:39;100097.34;;;9.34;94.81
23996;BME280;12207;50.076;8.848;2023-12-28T07:15:06;100109.91;;;9.33;94.62
23996;BME280;12207;50.076;8.848;2023-12-28T07:17:32;100111.53;;;9.28;94.73
23996;BME280;12207;50.076;8.848;2023-12-28T07:19:58;100118.75;;;9.34;94.40
23996;BME280;12207;50.076;8.848;2023-12-28T07:22:25;100113.00;;;9.37;94.72
23996;BME280;12207;50.076;8.848;2023-12-28T07:24:51;100128.63;;;9.40;94.41
23996;BME280;12207;50.076;8.848;2023-12-28T07:27:17;100126.16;;;9.38;94.58
23996;BME280;12207;50.076;8.848;2023-12-28T07:29:44;100117.72;;;9.41;94.19
23996;BME280;12207;50.076;8.848;2023-12-28T07:32:10;100123.91;;;9.42;94.02
23996;BME280;12207;50.076;8.848;2023-12-28T07:34:36;100140.13;;;9.47;94.05
23996;BME280;12207;50.076;8.848;2023-12-28T07:37:02;100135.41;;;9.49;93.89
23996;BME280;12207;50.076;8.848;2023-12-28T07:39:29;100136.44;;;9.48;93.95
23996;BME280;12207;50.076;8.848;2023-12-28T07:41:55;100140.34;;;9.52;93.62
23996;BME280;12207;50.076;8.848;2023-12-28T07:44:21;100143.22;;;9.50;93.66
23996;BME280;12207;50.076;8.848;2023-12-28T07:46:47;100146.09;;;9.49;94.03
23996;BME280;12207;50.076;8.848;2023-12-28T07:49:13;100146.09;;;9.49;94.02
23996;BME280;12207;50.076;8.848;2023-12-28T07:51:39;100139.72;;;9.50;93.92
23996;BME280;12207;50.076;8.848;2023-12-28T07:54:05;100146.31;;;9.54;94.21
23996;BME280;12207;50.076;8.848;2023-12-28T07:56:34;100153.09;;;9.56;93.68
23996;BME280;12207;50.076;8.848;2023-12-28T07:59:00;100153.94;;;9.64;93.39
23996;BME280;12207;50.076;8.848;2023-12-28T08:01:26;100155.38;;;9.66;93.56
23996;BME280;12207;50.076;8.848;2023-12-28T08:03:52;100156.78;;;9.69;93.07
23996;BME280;12207;50.076;8.848;2023-12-28T08:06:22;100157.41;;;9.71;93.13
23996;BME280;12207;50.076;8.848;2023-12-28T08:08:48;100145.28;;;9.75;92.96
23996;BME280;12207;50.076;8.848;2023-12-28T08:11:14;100148.56;;;9.77;93.33
23996;BME280;12207;50.076;8.848;2023-12-28T08:13:40;100134.38;;;9.76;93.55
23996;BME280;12207;50.076;8.848;2023-12-28T08:16:07;100145.88;;;9.83;93.22
23996;BME280;12207;50.076;8.848;2023-12-28T08:18:33;100145.06;;;9.83;93.16
23996;BME280;12207;50.076;8.848;2023-12-28T08:20:59;100144.84;;;9.78;93.97
23996;BME280;12207;50.076;8.848;2023-12-28T08:23:26;100147.53;;;9.78;94.46
23996;BME280;12207;50.076;8.848;2023-12-28T08:25:52;100140.94;;;9.74;94.42
23996;BME280;12207;50.076;8.848;2023-12-28T08:28:18;100154.94;;;9.76;93.89
23996;BME280;12207;50.076;8.848;2023-12-28T08:30:44;100138.06;;;9.75;93.91
23996;BME280;12207;50.076;8.848;2023-12-28T08:33:10;100145.88;;;9.77;93.99
23996;BME280;12207;50.076;8.848;2023-12-28T08:35:39;100143.81;;;9.79;93.75
23996;BME280;12207;50.076;8.848;2023-12-28T08:38:05;100149.59;;;9.82;93.92
23996;BME280;12207;50.076;8.848;2023-12-28T08:40:32;100150.63;;;9.81;94.03
23996;BME280;12207;50.076;8.848;2023-12-28T08:42:58;100147.94;;;9.81;94.16
23996;BME280;12207;50.076;8.848;2023-12-28T08:45:24;100147.53;;;9.84;93.86
23996;BME280;12207;50.076;8.848;2023-12-28T08:47:50;100145.47;;;9.86;93.95
23996;BME280;12207;50.076;8.848;2023-12-28T08:50:16;100144.25;;;9.89;93.79
23996;BME280;12207;50.076;8.848;2023-12-28T08:52:42;100138.88;;;9.89;94.02
23996;BME280;12207;50.076;8.848;2023-12-28T08:55:09;100137.44;;;9.86;93.82
23996;BME280;12207;50.076;8.848;2023-12-28T08:57:35;100139.72;;;9.89;93.85
23996;BME280;12207;50.076;8.848;2023-12-28T09:00:01;100132.88;;;10.00;93.00
23996;BME280;12207;50.076;8.848;2023-12-28T09:02:29;100143.59;;;10.07;92.75
23996;BME280;12207;50.076;8.848;2023-12-28T09:04:55;100143.78;;;10.12;92.58
23996;BME280;12207;50.076;8.848;2023-12-28T09:07:21;100140.91;;;10.13;91.93
23996;BME280;12207;50.076;8.848;2023-12-28T09:09:47;100141.28;;;10.17;92.30
23996;BME280;12207;50.076;8.848;2023-12-28T09:12:13;100139.25;;;10.19;91.93
23996;BME280;12207;50.076;8.848;2023-12-28T09:14:39;100143.94;;;10.17;92.58
23996;BME280;12207;50.076;8.848;2023-12-28T09:17:06;100138.38;;;10.18;91.95
23996;BME280;12207;50.076;8.848;2023-12-28T09:19:32;100146.44;;;10.25;91.82
23996;BME280;12207;50.076;8.848;2023-12-28T09:21:58;100143.78;;;10.25;91.88
23996;BME280;12207;50.076;8.848;2023-12-28T09:24:27;100146.66;;;10.30;91.62
23996;BME280;12207;50.076;8.848;2023-12-28T09:26:53;100153.22;;;10.34;91.46
23996;BME280;12207;50.076;8.848;2023-12-28T09:29:19;100168.44;;;10.40;90.94
23996;BME280;12207;50.076;8.848;2023-12-28T09:31:46;100169.66;;;10.44;91.03
23996;BME280;12207;50.076;8.848;2023-12-28T09:34:12;100170.47;;;10.51;90.73
23996;BME280;12207;50.076;8.848;2023-12-28T09:36:38;100172.31;;;10.57;89.69
23996;BME280;12207;50.076;8.848;2023-12-28T09:39:04;100175.34;;;10.68;89.18
23996;BME280;12207;50.076;8.848;2023-12-28T09:41:39;100184.34;;;10.86;88.13
23996;BME280;12207;50.076;8.848;2023-12-28T09:44:12;100179.66;;;11.13;87.12
23996;BME280;12207;50.076;8.848;2023-12-28T09:46:41;100171.81;;;11.12;86.10
23996;BME280;12207;50.076;8.848;2023-12-28T09:49:08;100170.09;;;11.24;86.03
23996;BME280;12207;50.076;8.848;2023-12-28T09:51:35;100172.97;;;11.29;85.66
23996;BME280;12207;50.076;8.848;2023-12-28T09:54:03;100179.19;;;11.23;85.71
23996;BME280;12207;50.076;8.848;2023-12-28T09:56:30;100177.75;;;11.20;85.56
23996;BME280;12207;50.076;8.848;2023-12-28T09:58:57;100182.59;;;11.05;86.13
23996;BME280;12207;50.076;8.848;2023-12-28T10:01:24;100192.16;;;11.26;85.96
23996;BME280;12207;50.076;8.848;2023-12-28T10:03:51;100188.97;;;11.42;84.53
23996;BME280;12207;50.076;8.848;2023-12-28T10:06:17;100186.16;;;11.31;85.23
23996;BME280;12207;50.076;8.848;2023-12-28T10:08:47;100187.84;;;11.25;84.72
23996;BME280;12207;50.076;8.848;2023-12-28T10:11:15;100190.09;;;11.28;84.61
23996;BME280;12207;50.076;8.848;2023-12-28T10:13:42;100191.81;;;11.16;84.31
23996;BME280;12207;50.076;8.848;2023-12-28T10:16:11;100192.41;;;11.18;84.33
23996;BME280;12207;50.076;8.848;2023-12-28T10:18:42;100188.31;;;11.15;83.50
23996;BME280;12207;50.076;8.848;2023-12-28T10:21:09;100186.88;;;11.13;84.11
23996;BME280;12207;50.076;8.848;2023-12-28T10:23:35;100191.84;;;11.41;82.79
23996;BME280;12207;50.076;8.848;2023-12-28T10:26:03;100176.09;;;11.51;81.14
23996;BME280;12207;50.076;8.848;2023-12-28T10:28:32;100192.53;;;11.61;80.30
23996;BME280;12207;50.076;8.848;2023-12-28T10:31:10;100203.41;;;11.98;79.29
23996;BME280;12207;50.076;8.848;2023-12-28T10:33:36;100183.78;;;12.22;78.04
23996;BME280;12207;50.076;8.848;2023-12-28T10:36:07;100191.78;;;12.47;76.40
23996;BME280;12207;50.076;8.848;2023-12-28T10:38:37;100193.66;;;12.03;77.82
23996;BME280;12207;50.076;8.848;2023-12-28T10:41:07;100190.66;;;11.93;78.64
23996;BME280;12207;50.076;8.848;2023-12-28T10:43:46;100185.41;;;11.80;78.31
23996;BME280;12207;50.076;8.848;2023-12-28T10:46:26;100189.97;;;11.73;79.52
23996;BME280;12207;50.076;8.848;2023-12-28T10:49:15;100169.78;;;12.13;77.79
23996;BME280;12207;50.076;8.848;2023-12-28T10:51:43;100172.63;;;12.55;76.11
23996;BME280;12207;50.076;8.848;2023-12-28T10:54:47;100165.03;;;13.00;73.36
23996;BME280;12207;50.076;8.848;2023-12-28T10:57:27;100164.13;;;13.06;72.40
23996;BME280;12207;50.076;8.848;2023-12-28T11:00:25;100170.38;;;12.88;72.76
23996;BME280;12207;50.076;8.848;2023-12-28T11:02:58;100161.22;;;12.41;75.16
23996;BME280;12207;50.076;8.848;2023-12-28T11:05:29;100158.84;;;12.33;75.16
23996;BME280;12207;50.076;8.848;2023-12-28T11:07:57;100161.44;;;12.40;76.21
23996;BME280;12207;50.076;8.848;2023-12-28T11:10:24;100165.25;;;12.32;75.81
23996;BME280;12207;50.076;8.848;2023-12-28T11:12:52;100166.31;;;12.49;75.87
23996;BME280;12207;50.076;8.848;2023-12-28T11:15:19;100177.50;;;12.64;75.08
23996;BME280;12207;50.076;8.848;2023-12-28T11:17:46;100179.28;;;12.71;74.90
23996;BME280;12207;50.076;8.848;2023-12-28T11:20:14;100174.72;;;12.35;75.68
23996;BME280;12207;50.076;8.848;2023-12-28T11:22:43;100174.59;;;12.48;75.84
23996;BME280;12207;50.076;8.848;2023-12-28T11:25:17;100173.31;;;12.32;76.20
23996;BME280;12207;50.076;8.848;2023-12-28T11:27:45;100176.16;;;12.37;76.53
23996;BME280;12207;50.076;8.848;2023-12-28T11:30:12;100182.78;;;12.35;75.78
23996;BME280;12207;50.076;8.848;2023-12-28T11:32:41;100167.66;;;12.40;75.57
23996;BME280;12207;50.076;8.848;2023-12-28T11:35:13;100179.81;;;12.24;75.79
23996;BME280;12207;50.076;8.848;2023-12-28T11:37:45;100165.50;;;12.49;75.32
23996;BME280;12207;50.076;8.848;2023-12-28T11:40:16;100163.31;;;12.39;75.40
23996;BME280;12207;50.076;8.848;2023-12-28T11:42:53;100157.06;;;12.45;74.69
23996;BME280;12207;50.076;8.848;2023-12-28T11:45:21;100164.34;;;12.56;73.35
23996;BME280;12207;50.076;8.848;2023-12-28T11:47:59;100157.09;;;12.57;75.16
23996;BME280;12207;50.076;8.848;2023-12-28T11:50:26;100151.47;;;12.77;73.76
23996;BME280;12207;50.076;8.848;2023-12-28T11:52:53;100156.56;;;12.85;73.22
23996;BME280;12207;50.076;8.848;2023-12-28T11:55:28;100138.81;;;12.66;72.60
23996;BME280;12207;50.076;8.848;2023-12-28T11:57:54;100139.41;;;12.68;73.46
23996;BME280;12207;50.076;8.848;2023-12-28T12:00:20;100148.66;;;12.53;73.46
23996;BME280;12207;50.076;8.848;2023-12-28T12:02:50;100139.06;;;12.27;74.45
23996;BME280;12207;50.076;8.848;2023-12-28T12:05:16;100131.16;;;12.33;74.95
23996;BME280;12207;50.076;8.848;2023-12-28T12:07:43;100139.75;;;12.23;74.62
23996;BME280;12207;50.076;8.848;2023-12-28T12:10:14;100122.44;;;12.19;74.86
23996;BME280;12207;50.076;8.848;2023-12-28T12:12:41;100116.63;;;12.22;74.72
23996;BME280;12207;50.076;8.848;2023-12-28T12:15:08;100113.31;;;12.20;74.82
23996;BME280;12207;50.076;8.848;2023-12-28T12:17:35;100112.44;;;12.26;75.16
23996;BME280;12207;50.076;8.848;2023-12-28T12:20:01;100099.91;;;12.20;74.11
23996;BME280;12207;50.076;8.848;2023-12-28T12:22:28;100114.00;;;12.15;74.58
23996;BME280;12207;50.076;8.848;2023-12-28T12:24:54;100104.94;;;12.10;74.69
23996;BME280;12207;50.076;8.848;2023-12-28T12:27:22;100089.50;;;12.05;75.31
23996;BME280;12207;50.076;8.848;2023-12-28T12:29:51;100104.94;;;12.10;75.67
23996;BME280;12207;50.076;8.848;2023-12-28T12:32:17;100092.34;;;11.92;75.63
23996;BME280;12207;50.076;8.848;2023-12-28T12:34:43;100079.59;;;11.87;75.90
23996;BME280;12207;50.076;8.848;2023-12-28T12:37:09;100087.78;;;11.92;76.18
23996;BME280;12207;50.076;8.848;2023-12-28T12:39:36;100084.94;;;11.87;76.27
23996;BME280;12207;50.076;8.848;2023-12-28T12:42:05;100084.94;;;11.87;76.29
23996;BME280;12207;50.076;8.848;2023-12-28T12:44:31;100083.53;;;11.85;76.35
23996;BME280;12207;50.076;8.848;2023-12-28T12:47:00;100077.44;;;11.78;77.34
23996;BME280;12207;50.076;8.848;2023-12-28T12:49:27;100083.88;;;11.70;78.11
23996;BME280;12207;50.076;8.848;2023-12-28T12:51:54;100068.63;;;11.64;78.27
23996;BME280;12207;50.076;8.848;2023-12-28T12:54:20;100073.53;;;11.49;79.93
23996;BME280;12207;50.076;8.848;2023-12-28T12:56:53;100066.53;;;11.48;79.64
23996;BME280;12207;50.076;8.848;2023-12-28T12:59:20;100067.41;;;11.42;80.05